Time;durP1;ratioP1;P1;durP2;ratioP2;P2;SDS_P1;SDS_P2;PMS_P1;PMS_P2;Temp;Humidity;BMP_temperature;BMP_pressure;BME280_temperature;BME280_humidity;BME280_pressure;Samples;Min_cycle;Max_cycle;Signal;HPM_P1;HPM_P2
2021/06/13 00:01:17;;;;;;;10.65;7.00;;;588.90;2432.00;;;;;;4894414;29;20037;-74
2021/06/13 00:03:43;;;;;;;8.13;6.65;;;588.90;2432.00;;;;;;4905706;29;20040;-74
2021/06/13 00:06:09;;;;;;;11.82;7.53;;;588.90;2432.00;;;;;;4888989;29;20021;-75
2021/06/13 00:08:35;;;;;;;7.88;6.90;;;588.90;2432.00;;;;;;4879471;29;20025;-74
2021/06/13 00:11:01;;;;;;;9.63;7.13;;;588.90;2432.00;;;;;;4868521;29;20044;-74
2021/06/13 00:13:27;;;;;;;8.48;7.65;;;588.90;2432.00;;;;;;4895527;29;20032;-74
2021/06/13 00:15:53;;;;;;;7.65;6.93;;;588.90;2432.00;;;;;;4897580;29;20040;-73
2021/06/13 00:18:22;;;;;;;9.02;7.63;;;588.90;2432.00;;;;;;4878615;29;20517;-74
2021/06/13 00:20:50;;;;;;;9.52;7.10;;;588.90;2432.00;;;;;;4896297;29;20499;-74
2021/06/13 00:23:16;;;;;;;8.27;6.40;;;588.90;2432.00;;;;;;4892618;29;20023;-74
2021/06/13 00:25:43;;;;;;;7.22;6.38;;;588.80;2432.00;;;;;;4892756;29;20397;-73
2021/06/13 00:28:09;;;;;;;9.85;7.45;;;588.80;2432.00;;;;;;4906187;29;20035;-74
2021/06/13 00:30:35;;;;;;;10.55;8.00;;;588.80;2432.00;;;;;;4895824;29;20033;-73
2021/06/13 00:33:01;;;;;;;9.52;7.30;;;588.80;2432.00;;;;;;4902402;29;20119;-74
2021/06/13 00:35:27;;;;;;;8.82;7.05;;;588.80;2432.00;;;;;;4896928;29;20184;-74
2021/06/13 00:37:52;;;;;;;7.55;6.75;;;588.80;2432.00;;;;;;4894622;29;20029;-74
2021/06/13 00:40:20;;;;;;;12.50;6.50;;;588.80;2432.00;;;;;;4891003;29;20025;-73
2021/06/13 00:42:46;;;;;;;8.63;6.63;;;588.80;2432.00;;;;;;4886808;29;20399;-74
2021/06/13 00:45:13;;;;;;;7.57;6.78;;;588.80;2432.00;;;;;;4868092;29;20039;-73
2021/06/13 00:47:39;;;;;;;9.60;7.38;;;588.90;2432.00;;;;;;4897040;29;20028;-74
2021/06/13 00:50:12;;;;;;;7.97;6.85;;;588.90;2432.00;;;;;;4893280;29;20033;-74
2021/06/13 00:52:38;;;;;;;9.98;7.25;;;589.00;2432.00;;;;;;4889332;29;20032;-73
2021/06/13 00:55:04;;;;;;;7.68;6.57;;;589.00;2432.00;;;;;;4879940;29;20059;-74
2021/06/13 00:57:30;;;;;;;8.00;6.95;;;589.00;2432.00;;;;;;4896650;29;20032;-74
2021/06/13 00:59:56;;;;;;;10.43;7.35;;;589.00;2432.00;;;;;;4893254;29;20040;-73
2021/06/13 01:02:24;;;;;;;9.70;6.45;;;589.00;2432.00;;;;;;4894514;29;20033;-74
2021/06/13 01:04:50;;;;;;;8.65;6.57;;;589.00;2432.00;;;;;;4888066;29;20031;-74
2021/06/13 01:07:32;;;;;;;8.80;7.25;;;589.00;2432.00;;;;;;4888787;29;20875;-73
2021/06/13 01:10:18;;;;;;;7.75;6.13;;;589.00;2432.00;;;;;;4906107;29;20021;-74
2021/06/13 01:12:50;;;;;;;7.53;6.10;;;589.00;2432.00;;;;;;4896763;29;20505;-74
2021/06/13 01:15:19;;;;;;;10.68;6.88;;;589.00;2432.00;;;;;;4895740;29;20025;-74
2021/06/13 01:17:45;;;;;;;9.25;7.47;;;589.00;2432.00;;;;;;4901579;29;20726;-74
2021/06/13 01:20:17;;;;;;;7.55;6.13;;;589.00;2432.00;;;;;;4890534;29;20032;-73
2021/06/13 01:23:07;;;;;;;10.50;7.20;;;589.00;2432.00;;;;;;4894372;29;20553;-74
2021/06/13 01:25:35;;;;;;;7.13;6.40;;;589.00;2432.00;;;;;;4879104;29;20036;-74
2021/06/13 01:28:20;;;;;;;8.98;7.03;;;589.00;2432.00;;;;;;4892136;29;20025;-74
2021/06/13 01:30:48;;;;;;;9.10;6.97;;;589.00;2432.00;;;;;;4890656;29;20111;-74
2021/06/13 01:33:15;;;;;;;9.82;7.30;;;589.00;2432.00;;;;;;4879551;29;20056;-74
2021/06/13 01:35:43;;;;;;;7.53;6.43;;;589.00;2432.00;;;;;;4888344;29;20036;-74
2021/06/13 01:38:13;;;;;;;7.03;6.00;;;589.00;2432.00;;;;;;4895880;29;20021;-74
2021/06/13 01:40:41;;;;;;;7.15;6.25;;;589.10;2432.00;;;;;;4894487;29;20047;-74
2021/06/13 01:43:08;;;;;;;7.65;6.43;;;589.10;2432.00;;;;;;4894754;29;20029;-74
2021/06/13 01:45:39;;;;;;;7.38;5.68;;;589.10;2432.00;;;;;;4895516;29;20029;-73
2021/06/13 01:48:08;;;;;;;7.63;6.20;;;589.20;2432.00;;;;;;4893873;29;20024;-74
2021/06/13 01:50:35;;;;;;;7.45;5.15;;;589.20;2432.00;;;;;;4891609;29;20032;-74
2021/06/13 01:53:09;;;;;;;9.23;7.18;;;589.20;2432.00;;;;;;4891390;29;20029;-74
2021/06/13 01:55:36;;;;;;;7.18;6.15;;;589.20;2432.00;;;;;;4891869;29;20068;-74
2021/06/13 01:58:03;;;;;;;9.45;6.72;;;589.10;2432.00;;;;;;4896090;29;20017;-74
2021/06/13 02:00:29;;;;;;;8.68;7.13;;;589.20;2432.00;;;;;;4878948;29;20119;-74
2021/06/13 02:02:57;;;;;;;10.25;8.13;;;589.00;2432.00;;;;;;4896084;29;20672;-74
2021/06/13 02:05:24;;;;;;;10.60;8.75;;;588.90;2432.00;;;;;;4892343;29;20025;-74
2021/06/13 02:07:53;;;;;;;13.85;8.57;;;588.80;2432.00;;;;;;4896145;29;20024;-74
2021/06/13 02:10:21;;;;;;;12.40;8.88;;;564.10;2432.00;;;;;;4895360;29;20470;-73
2021/06/13 02:12:48;;;;;;;9.68;8.38;;;563.90;2432.00;;;;;;4885321;29;20112;-74
2021/06/13 02:15:18;;;;;;;10.70;9.18;;;563.70;2432.00;;;;;;4895709;29;20020;-74
2021/06/13 02:17:47;;;;;;;10.25;9.18;;;563.70;2432.00;;;;;;4901779;29;20501;-74
2021/06/13 02:20:13;;;;;;;12.82;8.88;;;563.60;2432.00;;;;;;4887130;29;20041;-74
2021/06/13 02:22:41;;;;;;;11.52;10.32;;;563.40;2432.00;;;;;;4896082;29;20104;-74
2021/06/13 02:25:08;;;;;;;10.27;9.07;;;563.20;2432.00;;;;;;4890534;29;20072;-73
2021/06/13 02:27:35;;;;;;;9.82;8.82;;;538.40;2406.40;;;;;;4898855;29;20473;-73
2021/06/13 02:30:04;;;;;;;11.23;8.80;;;538.30;2406.40;;;;;;4898992;29;20028;-74
2021/06/13 02:32:33;;;;;;;11.73;9.88;;;538.00;2406.40;;;;;;4896631;29;20044;-73
2021/06/13 02:34:59;;;;;;;13.13;10.27;;;538.00;2406.40;;;;;;4888677;29;20613;-74
2021/06/13 02:37:26;;;;;;;12.93;10.23;;;537.80;2406.40;;;;;;4894383;29;20112;-74
2021/06/13 02:39:53;;;;;;;10.65;9.65;;;537.70;2406.40;;;;;;4889750;29;20132;-74
2021/06/13 02:42:19;;;;;;;11.68;8.73;;;537.60;2406.40;;;;;;4892983;29;20068;-74
2021/06/13 02:44:47;;;;;;;10.50;9.43;;;512.90;2380.80;;;;;;4899050;29;20021;-74
2021/06/13 02:47:14;;;;;;;12.35;9.57;;;512.70;2380.80;;;;;;4891491;29;20028;-74
2021/06/13 02:49:40;;;;;;;9.55;8.10;;;512.60;2380.80;;;;;;4896527;29;20028;-74
2021/06/13 02:52:21;;;;;;;10.13;8.90;;;512.60;2380.80;;;;;;4899462;29;20032;-75
2021/06/13 02:54:47;;;;;;;10.93;9.13;;;512.60;2380.80;;;;;;4887593;29;20060;-74
2021/06/13 02:57:24;;;;;;;13.57;8.93;;;512.60;2380.80;;;;;;4882170;29;20393;-74
2021/06/13 02:59:55;;;;;;;10.60;9.50;;;512.50;2380.80;;;;;;4905905;29;20059;-74
2021/06/13 03:02:27;;;;;;;11.13;8.90;;;512.50;2380.80;;;;;;4867195;29;20033;-74
2021/06/13 03:04:54;;;;;;;10.43;9.02;;;512.40;2380.80;;;;;;4881400;29;20060;-74
2021/06/13 03:07:21;;;;;;;13.18;8.82;;;512.30;2380.80;;;;;;4891356;29;20029;-74
2021/06/13 03:09:52;;;;;;;10.57;9.57;;;512.50;2380.80;;;;;;4898335;29;20114;-74
2021/06/13 03:12:19;;;;;;;13.27;10.52;;;512.50;2380.80;;;;;;4896509;29;20533;-74
2021/06/13 03:14:46;;;;;;;13.52;10.35;;;512.50;2380.80;;;;;;4888646;29;20029;-74
2021/06/13 03:17:13;;;;;;;11.15;10.00;;;512.50;2380.80;;;;;;4878211;29;20036;-74
2021/06/13 03:19:41;;;;;;;12.45;10.60;;;512.50;2380.80;;;;;;4893221;29;20044;-74
2021/06/13 03:22:07;;;;;;;13.50;10.55;;;512.50;2380.80;;;;;;4892178;29;20044;-74
2021/06/13 03:24:39;;;;;;;12.60;10.43;;;512.50;2380.80;;;;;;4895850;29;20040;-74
2021/06/13 03:27:06;;;;;;;14.00;10.70;;;512.40;2380.80;;;;;;4881720;29;20119;-74
2021/06/13 03:29:35;;;;;;;12.10;10.80;;;512.40;2380.80;;;;;;4891317;29;20020;-74
2021/06/13 03:32:02;;;;;;;11.35;10.07;;;512.50;2380.80;;;;;;4897937;29;20039;-74
2021/06/13 03:34:28;;;;;;;13.98;10.05;;;512.30;2380.80;;;;;;4875447;29;20081;-74
2021/06/13 03:36:55;;;;;;;15.95;10.82;;;512.20;2380.80;;;;;;4887796;29;20394;-74
2021/06/13 03:39:22;;;;;;;16.20;12.15;;;512.20;2380.80;;;;;;4881007;29;20132;-74
2021/06/13 03:41:49;;;;;;;12.73;11.48;;;512.20;2380.80;;;;;;4893766;29;20031;-74
2021/06/13 03:44:15;;;;;;;13.07;11.13;;;512.20;2380.80;;;;;;4897039;29;20363;-74
2021/06/13 03:46:42;;;;;;;11.50;10.35;;;512.20;2380.80;;;;;;4895734;29;20051;-74
2021/06/13 03:49:10;;;;;;;13.98;12.25;;;512.20;2380.80;;;;;;4895756;29;20080;-74
2021/06/13 03:51:36;;;;;;;14.82;11.93;;;512.10;2380.80;;;;;;4878712;29;20024;-74
2021/06/13 03:54:02;;;;;;;17.15;12.90;;;512.00;2380.80;;;;;;4895572;29;20048;-73
2021/06/13 03:56:36;;;;;;;13.77;12.23;;;512.00;2380.80;;;;;;4898081;29;20123;-74
2021/06/13 03:59:03;;;;;;;14.20;12.45;;;512.00;2380.80;;;;;;4880577;29;20782;-73
2021/06/13 04:01:29;;;;;;;16.25;13.57;;;512.00;2380.80;;;;;;4893397;29;20037;-73
2021/06/13 04:03:56;;;;;;;16.60;14.77;;;487.30;2380.80;;;;;;4897770;29;20046;-73
2021/06/13 04:06:24;;;;;;;16.95;12.90;;;512.00;2380.80;;;;;;4897558;29;20080;-73
2021/06/13 04:08:51;;;;;;;14.43;12.90;;;512.00;2380.80;;;;;;4904025;29;20020;-73
2021/06/13 04:11:18;;;;;;;14.25;12.80;;;512.00;2380.80;;;;;;4891266;29;20025;-74
2021/06/13 04:13:46;;;;;;;15.38;12.73;;;512.00;2380.80;;;;;;4887910;29;20112;-73
2021/06/13 04:16:13;;;;;;;17.05;12.65;;;512.00;2380.80;;;;;;4882277;29;20033;-73
2021/06/13 04:18:41;;;;;;;12.57;11.27;;;512.10;2380.80;;;;;;4903692;29;20029;-74
2021/06/13 04:21:10;;;;;;;13.23;11.07;;;512.10;2380.80;;;;;;4897077;29;20040;-74
2021/06/13 04:23:38;;;;;;;12.23;11.02;;;512.20;2380.80;;;;;;4890657;29;20021;-74
2021/06/13 04:26:04;;;;;;;13.65;10.82;;;512.20;2380.80;;;;;;4897531;29;20024;-74
2021/06/13 04:28:30;;;;;;;12.18;10.70;;;512.20;2380.80;;;;;;4876853;29;20044;-73
2021/06/13 04:31:02;;;;;;;12.35;10.65;;;512.20;2380.80;;;;;;4884325;29;20033;-74
2021/06/13 04:33:32;;;;;;;14.45;11.13;;;512.30;2380.80;;;;;;4880483;29;20108;-74
2021/06/13 04:35:58;;;;;;;11.98;10.77;;;512.30;2380.80;;;;;;4893495;29;20035;-74
2021/06/13 04:38:23;;;;;;;13.57;10.85;;;512.30;2380.80;;;;;;4876882;29;20033;-73
2021/06/13 04:40:49;;;;;;;11.65;10.23;;;512.30;2380.80;;;;;;4879703;29;20048;-73
2021/06/13 04:43:15;;;;;;;12.25;11.05;;;512.30;2380.80;;;;;;4896629;29;20025;-74
2021/06/13 04:45:41;;;;;;;11.05;9.93;;;512.30;2380.80;;;;;;4878501;29;20065;-73
2021/06/13 04:48:07;;;;;;;12.30;11.07;;;512.40;2380.80;;;;;;4897428;29;20267;-74
2021/06/13 04:50:35;;;;;;;13.30;11.07;;;512.40;2380.80;;;;;;4896988;29;20029;-74
2021/06/13 04:53:02;;;;;;;11.70;10.50;;;512.40;2380.80;;;;;;4871253;29;20061;-73
2021/06/13 04:55:59;;;;;;;12.80;10.70;;;512.50;2380.80;;;;;;4887642;29;20127;-73
2021/06/13 04:58:25;;;;;;;;;;;512.40;2380.80;;;;;;4781331;29;20173;-73
2021/06/13 05:00:52;;;;;;;13.68;11.38;;;512.40;2380.80;;;;;;4802431;29;19911;-73
2021/06/13 05:03:18;;;;;;;11.55;10.35;;;512.40;2380.80;;;;;;4801622;29;20079;-73
2021/06/13 05:05:44;;;;;;;11.07;9.98;;;512.40;2380.80;;;;;;4816472;29;20105;-73
2021/06/13 05:08:10;;;;;;;11.98;10.00;;;512.40;2380.80;;;;;;4806878;29;20548;-73
2021/06/13 05:10:36;;;;;;;14.02;11.10;;;512.50;2380.80;;;;;;4815965;29;20035;-73
2021/06/13 05:13:15;;;;;;;14.75;11.10;;;512.50;2380.80;;;;;;4812996;29;20044;-74
2021/06/13 05:15:41;;;;;;;11.75;10.50;;;512.40;2380.80;;;;;;4799983;29;20428;-74
2021/06/13 05:18:07;;;;;;;12.48;11.18;;;512.50;2380.80;;;;;;4811248;29;20046;-73
2021/06/13 05:20:33;;;;;;;12.13;9.32;;;512.50;2380.80;;;;;;4811381;29;20045;-74
2021/06/13 05:23:01;;;;;;;12.23;10.35;;;512.50;2380.80;;;;;;4812025;29;20043;-74
2021/06/13 05:25:33;;;;;;;12.20;9.52;;;512.50;2380.80;;;;;;4805965;29;20050;-74
2021/06/13 05:28:00;;;;;;;10.10;8.55;;;512.50;2380.80;;;;;;4815846;29;20042;-74
2021/06/13 05:30:28;;;;;;;10.82;9.82;;;512.50;2380.80;;;;;;4808141;29;20031;-74
2021/06/13 05:32:54;;;;;;;11.50;9.18;;;512.50;2380.80;;;;;;4808758;29;20042;-74
2021/06/13 05:35:21;;;;;;;10.48;8.68;;;512.50;2380.80;;;;;;4870044;29;20047;-73
2021/06/13 05:37:46;;;;;;;11.05;9.45;;;512.50;2380.80;;;;;;4895991;29;20029;-74
2021/06/13 05:40:13;;;;;;;10.43;8.70;;;512.50;2380.80;;;;;;4896685;29;20029;-74
2021/06/13 05:42:40;;;;;;;10.25;9.18;;;512.50;2380.80;;;;;;4895935;29;20798;-74
2021/06/13 05:45:07;;;;;;;9.23;8.20;;;512.60;2380.80;;;;;;4896559;29;20105;-74
2021/06/13 05:47:33;;;;;;;9.55;8.02;;;512.50;2380.80;;;;;;4894280;29;20032;-74
2021/06/13 05:49:59;;;;;;;8.80;7.82;;;512.70;2380.80;;;;;;4893091;29;20093;-74
2021/06/13 05:52:25;;;;;;;9.32;7.45;;;512.70;2380.80;;;;;;4887820;29;20438;-74
2021/06/13 05:54:51;;;;;;;10.18;7.15;;;512.80;2380.80;;;;;;4878254;29;20083;-75
2021/06/13 05:57:18;;;;;;;9.95;8.82;;;512.90;2380.80;;;;;;4890202;29;20037;-74
2021/06/13 05:59:43;;;;;;;9.65;8.30;;;537.80;2406.40;;;;;;4900087;29;20060;-74
2021/06/13 06:02:09;;;;;;;9.75;8.00;;;537.80;2406.40;;;;;;4875300;29;20048;-74
2021/06/13 06:04:35;;;;;;;7.57;6.43;;;537.80;2406.40;;;;;;4896148;29;20052;-75
2021/06/13 06:07:00;;;;;;;8.73;7.75;;;537.80;2406.40;;;;;;4899203;29;20060;-74
2021/06/13 06:09:26;;;;;;;9.27;7.07;;;537.90;2406.40;;;;;;4894271;29;20021;-75
2021/06/13 06:11:52;;;;;;;8.55;6.75;;;538.10;2406.40;;;;;;4894597;29;20051;-74
2021/06/13 06:14:18;;;;;;;7.00;6.20;;;538.20;2406.40;;;;;;4877843;29;20029;-75
2021/06/13 06:16:45;;;;;;;6.47;5.60;;;538.40;2406.40;;;;;;4892926;29;20068;-74
2021/06/13 06:19:11;;;;;;;7.05;5.90;;;538.40;2406.40;;;;;;4899568;29;20537;-74
2021/06/13 06:21:37;;;;;;;9.80;6.57;;;538.50;2406.40;;;;;;4900822;29;20036;-74
2021/06/13 06:24:03;;;;;;;6.38;5.25;;;563.20;2432.00;;;;;;4899764;29;20036;-75
2021/06/13 06:26:29;;;;;;;8.75;5.80;;;538.50;2406.40;;;;;;4894710;29;20112;-75
2021/06/13 06:28:55;;;;;;;6.05;4.82;;;563.30;2432.00;;;;;;4904023;29;20111;-75
2021/06/13 06:31:20;;;;;;;5.47;4.60;;;563.60;2432.00;;;;;;4895692;29;20085;-75
2021/06/13 06:33:46;;;;;;;8.35;4.25;;;563.80;2432.00;;;;;;4882821;29;20076;-75
2021/06/13 06:36:12;;;;;;;8.80;4.32;;;588.90;2432.00;;;;;;4880183;29;20131;-75
2021/06/13 06:38:37;;;;;;;8.68;4.75;;;588.90;2432.00;;;;;;4882473;29;20028;-75
2021/06/13 06:41:03;;;;;;;5.13;3.70;;;589.00;2432.00;;;;;;4899049;29;20035;-75
2021/06/13 06:43:29;;;;;;;5.72;4.30;;;589.00;2432.00;;;;;;4896971;29;20065;-75
2021/06/13 06:45:55;;;;;;;7.90;4.40;;;564.10;2432.00;;;;;;4898500;29;20036;-75
2021/06/13 06:48:20;;;;;;;9.55;4.38;;;563.90;2432.00;;;;;;4897910;29;20035;-76
2021/06/13 06:50:46;;;;;;;5.38;3.90;;;563.70;2432.00;;;;;;4880093;29;20766;-74
2021/06/13 06:53:12;;;;;;;7.65;4.20;;;563.70;2432.00;;;;;;4895794;29;20104;-75
2021/06/13 06:55:38;;;;;;;5.43;4.10;;;563.60;2432.00;;;;;;4898311;29;20048;-74
2021/06/13 06:58:03;;;;;;;5.35;3.90;;;563.60;2432.00;;;;;;4896864;29;20036;-74
2021/06/13 07:00:30;;;;;;;9.10;4.47;;;563.60;2432.00;;;;;;4897452;29;20032;-74
2021/06/13 07:02:55;;;;;;;9.10;4.75;;;563.70;2432.00;;;;;;4892456;29;20426;-75
2021/06/13 07:05:21;;;;;;;6.43;4.82;;;563.70;2432.00;;;;;;4898960;29;20032;-75
2021/06/13 07:07:47;;;;;;;10.95;5.05;;;563.80;2432.00;;;;;;4905713;29;20120;-75
2021/06/13 07:10:14;;;;;;;8.90;5.53;;;564.00;2432.00;;;;;;4898755;29;20032;-74
2021/06/13 07:12:40;;;;;;;9.50;4.40;;;564.00;2432.00;;;;;;4898695;29;20040;-75
2021/06/13 07:15:08;;;;;;;7.30;5.35;;;588.80;2432.00;;;;;;4878536;29;20037;-75
2021/06/13 07:17:35;;;;;;;5.97;4.15;;;588.90;2432.00;;;;;;4898045;29;20104;-75
2021/06/13 07:20:02;;;;;;;15.93;5.20;;;588.80;2432.00;;;;;;4895698;29;20092;-75
2021/06/13 07:22:28;;;;;;;8.43;5.38;;;589.00;2432.00;;;;;;4880985;29;20856;-75
2021/06/13 07:24:54;;;;;;;5.32;3.50;;;589.00;2432.00;;;;;;4874997;29;20044;-75
2021/06/13 07:27:20;;;;;;;10.00;4.07;;;589.00;2432.00;;;;;;4897266;29;20146;-74
2021/06/13 07:29:46;;;;;;;5.88;4.45;;;589.10;2432.00;;;;;;4896740;29;20024;-74
2021/06/13 07:32:12;;;;;;;5.07;3.70;;;589.40;2432.00;;;;;;4897349;29;20036;-74
2021/06/13 07:34:38;;;;;;;6.60;3.92;;;589.60;2432.00;;;;;;4897093;29;20036;-74
2021/06/13 07:37:06;;;;;;;7.15;4.03;;;589.50;2432.00;;;;;;4896812;29;20032;-74
2021/06/13 07:39:32;;;;;;;8.30;3.72;;;614.40;2432.00;;;;;;4893933;29;20047;-74
2021/06/13 07:41:58;;;;;;;4.10;3.13;;;614.90;2380.80;;;;;;4880557;29;20033;-74
2021/06/13 07:44:27;;;;;;;4.75;3.40;;;614.90;2380.80;;;;;;4896826;29;20522;-74
2021/06/13 07:46:54;;;;;;;4.47;3.47;;;614.80;2355.20;;;;;;4897689;29;20048;-74
2021/06/13 07:49:20;;;;;;;5.30;2.95;;;589.70;2380.80;;;;;;4897635;29;20025;-74
2021/06/13 07:51:46;;;;;;;6.53;3.28;;;614.70;2355.20;;;;;;4879191;29;20087;-74
2021/06/13 07:54:11;;;;;;;11.93;3.88;;;614.50;2380.80;;;;;;4897095;29;20123;-74
2021/06/13 07:56:37;;;;;;;5.30;3.67;;;614.80;2355.20;;;;;;4895148;29;20609;-74
2021/06/13 07:59:03;;;;;;;7.55;3.85;;;615.10;2355.20;;;;;;4897788;29;20033;-74
2021/06/13 08:01:28;;;;;;;5.95;3.40;;;615.10;2304.00;;;;;;4893308;29;20048;-74
2021/06/13 08:03:54;;;;;;;6.57;3.38;;;614.60;2329.60;;;;;;4885138;29;20025;-74
2021/06/13 08:06:20;;;;;;;6.45;3.70;;;614.60;2329.60;;;;;;4897760;29;20112;-74
2021/06/13 08:08:46;;;;;;;6.25;3.20;;;614.70;2355.20;;;;;;4897972;29;20020;-74
2021/06/13 08:11:12;;;;;;;5.30;2.50;;;614.70;2176.00;;;;;;4898106;29;20052;-74
2021/06/13 08:13:38;;;;;;;5.57;3.10;;;615.20;2150.40;;;;;;4878963;29;20573;-74
2021/06/13 08:16:05;;;;;;;5.50;3.50;;;615.30;2124.80;;;;;;4899580;29;20036;-75
2021/06/13 08:18:31;;;;;;;6.07;3.00;;;614.90;2150.40;;;;;;4876768;29;20565;-75
2021/06/13 08:20:57;;;;;;;5.72;3.33;;;614.70;2150.40;;;;;;4898385;29;20119;-74
2021/06/13 08:23:22;;;;;;;4.47;3.38;;;614.70;2150.40;;;;;;4898464;29;20075;-74
2021/06/13 08:25:49;;;;;;;7.80;3.78;;;614.60;2176.00;;;;;;4893368;29;20390;-74
2021/06/13 08:28:16;;;;;;;8.13;3.80;;;614.70;2176.00;;;;;;4892843;29;20033;-74
2021/06/13 08:30:42;;;;;;;6.07;3.97;;;615.20;2150.40;;;;;;4895203;29;20036;-74
2021/06/13 08:33:07;;;;;;;8.43;3.08;;;615.20;2150.40;;;;;;4894130;29;20055;-74
2021/06/13 08:35:34;;;;;;;4.57;3.33;;;615.20;2073.60;;;;;;4895974;29;20123;-74
2021/06/13 08:38:02;;;;;;;7.30;3.22;;;640.10;2048.00;;;;;;4897065;29;20482;-74
2021/06/13 08:40:29;;;;;;;5.10;2.45;;;640.60;1996.80;;;;;;4896395;29;20071;-74
2021/06/13 08:42:57;;;;;;;7.65;3.38;;;665.80;1971.20;;;;;;4891409;29;20104;-74
2021/06/13 08:45:24;;;;;;;4.28;3.00;;;666.20;1920.00;;;;;;4895372;29;20665;-74
2021/06/13 08:47:54;;;;;;;5.47;3.08;;;666.30;1894.40;;;;;;4896255;29;20393;-74
2021/06/13 08:50:21;;;;;;;3.90;2.30;;;666.50;1843.20;;;;;;4896226;29;20056;-74
2021/06/13 08:52:48;;;;;;;3.42;2.20;;;666.50;1792.00;;;;;;4895870;29;20043;-74
2021/06/13 08:58:36;;;;;;;7.60;2.40;;;665.60;1843.20;;;;;;4893973;29;20128;-74
2021/06/13 09:01:03;;;;;;;7.25;2.75;;;666.00;1792.00;;;;;;4888834;29;20107;-75
2021/06/13 09:03:29;;;;;;;5.82;2.85;;;666.50;1766.40;;;;;;4892993;29;20016;-74
2021/06/13 09:05:55;;;;;;;5.55;2.70;;;691.40;1740.80;;;;;;4895394;29;20029;-74
2021/06/13 09:08:20;;;;;;;4.07;2.17;;;691.50;1689.60;;;;;;4895750;29;20076;-74
2021/06/13 09:10:47;;;;;;;4.05;2.60;;;666.40;1715.20;;;;;;4895741;29;20100;-74
2021/06/13 09:13:16;;;;;;;3.40;2.38;;;665.80;1792.00;;;;;;4895534;29;20371;-74
2021/06/13 09:15:46;;;;;;;5.50;2.50;;;666.20;1792.00;;;;;;4892562;29;20060;-74
2021/06/13 09:18:30;;;;;;;3.70;2.40;;;691.20;1740.80;;;;;;4894251;29;20028;-74
2021/06/13 09:20:57;;;;;;;5.20;2.70;;;691.40;1689.60;;;;;;4893265;29;20029;-74
2021/06/13 09:23:23;;;;;;;5.80;2.60;;;691.70;1689.60;;;;;;4874790;29;20028;-74
2021/06/13 09:25:57;;;;;;;3.20;2.15;;;691.70;1664.00;;;;;;4873794;29;20032;-74
2021/06/13 09:28:26;;;;;;;5.88;2.33;;;691.50;1689.60;;;;;;4892332;29;20108;-74
2021/06/13 09:30:52;;;;;;;8.52;2.65;;;691.50;1638.40;;;;;;4895961;29;20031;-75
2021/06/13 09:33:38;;;;;;;4.30;2.25;;;691.80;1638.40;;;;;;4877281;29;20068;-74
2021/06/13 09:36:06;;;;;;;5.03;2.22;;;691.40;1638.40;;;;;;4895260;29;20103;-74
2021/06/13 09:38:32;;;;;;;4.00;2.50;;;691.40;1638.40;;;;;;4874755;29;20059;-74
2021/06/13 09:41:07;;;;;;;3.30;2.42;;;691.70;1638.40;;;;;;4889458;29;20052;-74
2021/06/13 09:43:36;;;;;;;;;;;692.00;1587.20;;;;;;4895937;29;20047;-75
2021/06/13 09:46:07;;;;;;;4.07;1.83;;;716.90;1536.00;;;;;;4895966;29;19915;-74
2021/06/13 09:48:39;;;;;;;4.47;2.10;;;717.30;1510.40;;;;;;4879012;29;20509;-74
2021/06/13 09:51:08;;;;;;;6.15;2.58;;;717.30;1510.40;;;;;;4894518;29;20035;-74
2021/06/13 09:53:44;;;;;;;4.25;2.17;;;717.00;1536.00;;;;;;4877362;29;20509;-74
2021/06/13 09:56:22;;;;;;;4.47;2.60;;;692.00;1536.00;;;;;;4894476;29;20021;-74
2021/06/13 09:58:50;;;;;;;3.40;2.03;;;716.80;1536.00;;;;;;4896440;29;20025;-74
2021/06/13 10:01:17;;;;;;;3.63;1.98;;;716.90;1484.80;;;;;;4902915;29;20033;-74
2021/06/13 12:29:41;;;;;;;3.85;1.85;;;768.70;947.20;;;;;;4878477;29;20076;-70
2021/06/13 12:32:15;;;;;;;4.32;1.90;;;768.50;947.20;;;;;;4878638;29;20071;-70
2021/06/13 12:34:41;;;;;;;6.70;2.35;;;794.20;947.20;;;;;;4895519;29;20029;-70
2021/06/13 12:37:15;;;;;;;5.88;2.15;;;794.20;947.20;;;;;;4895962;29;20020;-70
2021/06/13 12:39:41;;;;;;;7.03;2.22;;;793.80;972.80;;;;;;4879827;29;20025;-70
2021/06/13 12:42:08;;;;;;;8.10;2.85;;;794.30;947.20;;;;;;4889591;29;20040;-70
2021/06/13 12:44:36;;;;;;;4.70;2.35;;;794.20;921.60;;;;;;4894791;29;20032;-69
2021/06/13 12:47:07;;;;;;;4.70;2.05;;;768.00;972.80;;;;;;4893073;29;20028;-70
2021/06/13 12:49:43;;;;;;;5.82;2.45;;;717.60;998.40;;;;;;4888268;29;20021;-70
2021/06/13 12:52:19;;;;;;;6.88;1.60;;;742.50;1024.00;;;;;;4873699;29;20060;-69
2021/06/13 12:54:54;;;;;;;4.60;1.90;;;743.20;972.80;;;;;;4885488;29;20032;-69
2021/06/13 12:57:26;;;;;;;3.35;1.73;;;742.90;998.40;;;;;;4883299;29;20071;-69
2021/06/13 12:59:55;;;;;;;6.05;2.30;;;717.40;1049.60;;;;;;4885378;29;20041;-69
2021/06/13 13:02:25;;;;;;;2.50;1.80;;;743.00;1049.60;;;;;;4874630;29;20132;-69
2021/06/13 13:04:55;;;;;;;4.10;1.70;;;768.10;998.40;;;;;;4884191;29;20025;-69
2021/06/13 13:07:47;;;;;;;5.13;2.22;;;768.30;947.20;;;;;;4887324;29;20056;-69
2021/06/13 13:10:24;;;;;;;5.03;2.47;;;768.10;972.80;;;;;;4865560;29;20837;-69
2021/06/13 13:12:57;;;;;;;5.10;2.05;;;717.60;998.40;;;;;;4872661;29;20037;-69
2021/06/13 13:15:28;;;;;;;9.00;3.00;;;716.80;1075.20;;;;;;4887034;29;20047;-71
2021/06/13 13:18:13;;;;;;;10.48;2.65;;;717.10;1049.60;;;;;;4893691;29;20028;-71
2021/06/13 13:20:39;;;;;;;3.58;2.53;;;691.80;1049.60;;;;;;4891789;29;20104;-70
2021/06/13 13:23:08;;;;;;;4.72;2.10;;;716.80;1075.20;;;;;;4889769;29;20489;-71
2021/06/13 13:25:53;;;;;;;8.32;3.30;;;742.70;998.40;;;;;;4874330;29;20025;-71
2021/06/13 13:28:21;;;;;;;4.30;2.25;;;743.20;998.40;;;;;;4891744;29;20020;-71
2021/06/13 13:30:49;;;;;;;6.57;2.28;;;717.40;1024.00;;;;;;4877751;29;20105;-72
2021/06/13 13:33:14;;;;;;;4.53;2.13;;;717.70;998.40;;;;;;4878170;29;20025;-69
2021/06/13 13:35:47;;;;;;;4.10;2.38;;;742.70;1024.00;;;;;;4885903;29;20821;-71
2021/06/13 13:38:16;;;;;;;9.95;2.80;;;742.90;1024.00;;;;;;4886506;29;20051;-71
2021/06/13 13:40:42;;;;;;;5.75;1.92;;;742.70;998.40;;;;;;4890666;29;20032;-70
2021/06/13 13:43:12;;;;;;;4.53;2.78;;;742.60;998.40;;;;;;4870788;29;20055;-71
2021/06/13 13:45:40;;;;;;;8.20;2.53;;;742.80;1024.00;;;;;;4890772;29;20040;-71
2021/06/13 13:48:20;;;;;;;5.43;2.15;;;743.00;998.40;;;;;;4888514;29;20036;-70
2021/06/13 13:50:49;;;;;;;5.50;2.85;;;743.20;972.80;;;;;;4884501;29;20021;-69
2021/06/13 13:53:28;;;;;;;5.22;2.08;;;743.20;972.80;;;;;;4885842;29;20049;-69
2021/06/13 13:56:01;;;;;;;6.57;2.83;;;743.20;972.80;;;;;;4891734;29;20091;-69
2021/06/13 13:58:30;;;;;;;5.55;1.98;;;768.10;972.80;;;;;;4887892;29;20032;-68
2021/06/13 14:00:57;;;;;;;5.18;2.00;;;768.10;947.20;;;;;;4883662;29;20387;-69
2021/06/13 14:03:25;;;;;;;4.03;1.63;;;768.40;921.60;;;;;;4883834;29;20454;-69
2021/06/13 14:05:55;;;;;;;4.70;2.45;;;768.30;921.60;;;;;;4889894;29;20024;-70
2021/06/13 14:08:22;;;;;;;4.55;2.13;;;768.60;947.20;;;;;;4877703;29;20045;-70
2021/06/13 14:10:48;;;;;;;4.88;2.03;;;768.50;921.60;;;;;;4887215;29;20029;-70
2021/06/13 14:13:14;;;;;;;5.70;1.85;;;768.50;921.60;;;;;;4873993;29;20087;-69
2021/06/13 14:15:46;;;;;;;9.02;2.10;;;768.60;921.60;;;;;;4890965;29;20036;-70
2021/06/13 14:18:18;;;;;;;8.30;2.20;;;768.90;896.00;;;;;;4894915;29;20631;-70
2021/06/13 14:20:43;;;;;;;9.07;2.30;;;768.20;921.60;;;;;;4893405;29;20036;-70
2021/06/13 14:23:10;;;;;;;4.75;1.73;;;743.30;947.20;;;;;;4894692;29;20545;-70
2021/06/13 14:25:37;;;;;;;5.63;2.15;;;743.30;947.20;;;;;;4896011;29;20036;-70
2021/06/13 14:28:06;;;;;;;12.45;7.05;;;768.00;947.20;;;;;;4877874;29;20024;-70
2021/06/13 14:30:32;;;;;;;7.93;3.58;;;742.90;972.80;;;;;;4874257;29;20045;-70
2021/06/13 14:32:58;;;;;;;3.95;1.80;;;742.50;972.80;;;;;;4873941;29;20494;-70
2021/06/13 14:35:23;;;;;;;6.55;1.88;;;742.60;972.80;;;;;;4873766;29;20033;-71
2021/06/13 14:37:49;;;;;;;7.47;2.40;;;742.60;972.80;;;;;;4870300;29;20033;-71
2021/06/13 14:40:16;;;;;;;4.88;2.17;;;742.70;972.80;;;;;;4877488;29;20044;-72
2021/06/13 14:42:48;;;;;;;5.68;2.45;;;743.00;947.20;;;;;;4876438;29;20072;-71
2021/06/13 14:45:16;;;;;;;4.50;2.33;;;743.10;947.20;;;;;;4869357;29;20045;-71
2021/06/13 14:47:43;;;;;;;3.80;2.50;;;743.30;947.20;;;;;;4873954;29;20022;-71